KRNO/RNO METAR and TAF weather

Enter ICAO airport designator
Station Type Date Time Source
KRNO METAR 2019/02/21 10:55 UTC NOAA

KRNO 211055Z 30005KT 10SM BKN039 BKN090 M03/M08 A2962 RMK AO2 SLP041 T10331083


Station Type Date Time Source
KRNO Decoded METAR 2019/02/21 10:55 UTC NOAA

RENO/TAHOE INTERNATIONAL AIRPORT, NV, United States (KRNO) 39-29N 119-46W 1342M
Feb 21, 2019 - 05:55 AM EST / 2019.02.21 1055 UTC
Wind: from the WNW (300 degrees) at 6 MPH (5 KT):0
Visibility: 10 mile(s):0
Sky conditions: mostly cloudy
Temperature: 26.1 F (-3.3 C)
Windchill: 19 F (-7 C):1
Dew Point: 17.1 F (-8.3 C)
Relative Humidity: 68%
Pressure (altimeter): 29.62 in. Hg (1003 hPa)
ob: KRNO 211055Z 30005KT 10SM BKN039 BKN090 M03/M08 A2962 RMK AO2 SLP041 T10331083
cycle: 11

Station Type Date Time Source
KRNO TAF 2019/02/21 12:33 UTC NOAA

TAF KRNO 211130Z 2112/2212 36006KT P6SM -SN BKN035 BKN080
FM211300 36008KT 5SM -SHSN SCT020 OVC030
TEMPO 2114/2117 3/4SM -SN VV008
FM211900 02010G18KT 6SM -SHSN SCT020 BKN040
FM212300 02010KT P6SM VCSH SCT035 BKN050
FM220400 VRB03KT P6SM SCT050


Example: see airport list